Khorramabad, Iran
Current Conditions -  °F | °C
As of 2:00 PM on Saturday 01 Nov 2014 (Local Time) from OICK Reporting Station
Scattered Clouds Scattered Clouds  
Wind Chill: 19°   Ceiling: Unl
Heat Index: 19°   Visibility: 6mi
Dew Point:   Wind: 12mph
Humidity: 43%   Direction: 220°SW
Pressure: 29.91"   Gusts: NA
Location:  33.47°N, 48.35°E
Report Text: OICK 011100Z 22010KT 9999 FEW035CB SCT040TCU 19/06 Q1013
Loading
Personal Weather Stations






























Interactive Weather Map
Tropical Storm Tracking
New forecast layout! Learn more

10-Day Weather Forecast

Advertisements
Track Severe Weather on mobile